Terminal Aerodrome Forecast
Issued by NWS Wakefield, VA

Home | Current Version | Previous Version | Text Only | Print | Product List | Glossary On
Versions: 1 2 3 4 5 6 7 8 9 10 11 12 13 14 15 16 17 18 19 20 21 22
000
FTUS41 KAKQ 221100 CCA
TAFORF
TAF COR
KORF 221155Z 2212/2312 VRB03KT P6SM SCT009 BKN150
      TEMPO 2212/2213 OVC009
     FM221400 11005KT P6SM SCT020 BKN040
     FM222000 08005KT P6SM BKN035 BKN100=

USA.gov is the U.S. government's official web portal to all federal, state and local government web resources and services.